Time;durP1;ratioP1;P1;durP2;ratioP2;P2;SDS_P1;SDS_P2;PMS_P1;PMS_P2;Temp;Humidity;BMP_temperature;BMP_pressure;BME280_temperature;BME280_humidity;BME280_pressure;Samples;Min_cycle;Max_cycle;Signal;HPM_P1;HPM_P2
2022/06/19 00:00:07;;;;;;;11.48;5.68;;;;;;;14.10;64.03;99576.31;4909666;29;20062;-82
2022/06/19 00:02:39;;;;;;;10.43;5.70;;;;;;;14.15;64.11;99592.75;4926511;29;20036;-78
2022/06/19 00:05:06;;;;;;;9.20;5.57;;;;;;;14.05;64.26;99585.19;4937194;29;20119;-80
2022/06/19 00:07:32;;;;;;;13.10;5.70;;;;;;;13.96;64.28;99570.63;4933397;29;20052;-79
2022/06/19 00:09:59;;;;;;;9.73;5.60;;;;;;;13.99;64.39;99587.06;4911657;29;20048;-82
2022/06/19 00:12:25;;;;;;;15.35;5.97;;;;;;;14.02;64.58;99586.13;4928431;29;20050;-81
2022/06/19 00:14:51;;;;;;;12.30;6.03;;;;;;;14.01;64.40;99587.91;4909327;29;20135;-81
2022/06/19 00:17:17;;;;;;;9.70;5.28;;;;;;;13.75;64.44;99536.28;4909601;29;20039;-80
2022/06/19 00:19:43;;;;;;;9.02;5.13;;;;;;;13.78;64.67;99548.41;4924252;29;20352;-78
2022/06/19 00:22:09;;;;;;;9.98;5.20;;;;;;;13.88;64.64;99569.94;4910882;29;20057;-78
2022/06/19 00:24:35;;;;;;;11.60;5.63;;;;;;;13.93;64.83;99576.75;4936294;29;20071;-82
2022/06/19 00:27:01;;;;;;;9.13;5.28;;;;;;;13.89;64.80;99569.03;4935646;29;20047;-78
2022/06/19 00:29:28;;;;;;;12.45;5.63;;;;;;;13.95;64.92;99574.13;4927655;29;20039;-76
2022/06/19 00:31:55;;;;;;;10.05;5.70;;;;;;;13.91;64.92;99569.88;4931264;29;20491;-81
2022/06/19 00:34:22;;;;;;;8.65;5.40;;;;;;;13.98;64.80;99568.81;4913449;29;20056;-81
2022/06/19 00:36:50;;;;;;;10.55;5.15;;;;;;;13.83;65.40;99539.53;4928779;29;20040;-80
2022/06/19 00:39:20;;;;;;;12.02;5.40;;;;;;;13.95;64.96;99540.13;4939490;29;20063;-78
2022/06/19 00:41:48;;;;;;;11.20;5.78;;;;;;;13.94;64.84;99531.41;4945364;29;20047;-81
2022/06/19 00:44:15;;;;;;;13.27;4.80;;;;;;;14.11;64.86;99554.50;4945071;29;20098;-80
2022/06/19 00:46:52;;;;;;;9.55;4.70;;;;;;;14.08;64.88;99538.88;4933947;29;20492;-81
2022/06/19 00:49:32;;;;;;;7.72;4.82;;;;;;;14.16;65.02;99544.78;4934284;29;20032;-78
2022/06/19 00:52:09;;;;;;;11.65;5.20;;;;;;;14.14;64.67;99530.00;4945736;29;20058;-81
2022/06/19 00:54:42;;;;;;;9.43;5.13;;;;;;;14.33;64.59;99558.28;4938061;29;20035;-81
2022/06/19 00:57:09;;;;;;;10.48;4.93;;;;;;;14.35;64.66;99559.94;4926422;29;20056;-79
2022/06/19 00:59:37;;;;;;;7.72;4.85;;;;;;;14.36;64.46;99559.03;4923486;29;20076;-82
2022/06/19 01:02:04;;;;;;;6.22;4.75;;;;;;;14.37;64.41;99560.75;4924171;29;20046;-80
2022/06/19 01:04:45;;;;;;;7.22;4.70;;;;;;;14.32;64.57;99549.56;4924843;29;20091;-78
2022/06/19 01:07:11;;;;;;;9.50;4.85;;;;;;;14.40;64.26;99559.81;4925403;29;20488;-80
2022/06/19 01:09:37;;;;;;;11.00;5.28;;;;;;;14.35;64.58;99546.00;4911500;29;20050;-82
2022/06/19 01:12:04;;;;;;;8.23;4.28;;;;;;;14.40;64.19;99549.34;4921347;29;20043;-81
2022/06/19 01:14:32;;;;;;;10.15;4.32;;;;;;;14.32;64.34;99536.47;4925294;29;20051;-79
2022/06/19 01:17:01;;;;;;;7.45;4.45;;;;;;;14.43;64.22;99550.13;4940303;29;20118;-77
2022/06/19 01:19:31;;;;;;;6.05;4.22;;;;;;;14.44;64.17;99546.63;4924203;29;20043;-82
2022/06/19 01:22:08;;;;;;;10.20;4.72;;;;;;;14.34;64.30;99520.75;4940897;29;20090;-83
2022/06/19 01:24:55;;;;;;;8.52;4.63;;;;;;;14.48;64.24;99544.75;4925045;29;20124;-81
2022/06/19 01:30:09;;;;;;;9.35;4.80;;;;;;;14.45;64.09;99529.97;4923516;29;20495;-81
2022/06/19 01:32:37;;;;;;;9.65;4.78;;;;;;;14.51;63.97;99535.94;4922180;29;20103;-78
2022/06/19 01:35:07;;;;;;;10.43;5.05;;;;;;;14.43;63.94;99520.47;4906667;29;20606;-82
2022/06/19 01:37:37;;;;;;;7.50;5.05;;;;;;;14.43;64.18;99515.22;4926414;29;20048;-83
2022/06/19 01:40:13;;;;;;;9.27;4.65;;;;;;;14.52;63.97;99525.44;4924024;29;20058;-81
2022/06/19 01:42:39;;;;;;;11.70;5.35;;;;;;;14.44;64.00;99506.47;4924949;29;20065;-81
2022/06/19 01:45:06;;;;;;;13.65;5.22;;;;;;;14.61;64.08;99534.78;4939739;29;20043;-80
2022/06/19 01:47:32;;;;;;;9.18;5.35;;;;;;;14.55;64.17;99524.47;4932299;29;20138;-81
2022/06/19 01:50:00;;;;;;;11.90;5.20;;;;;;;14.64;64.09;99537.31;4928016;29;20047;-80
2022/06/19 01:52:29;;;;;;;16.40;4.28;;;;;;;14.50;64.09;99510.66;4912339;29;20047;-80
2022/06/19 01:55:17;;;;;;;8.55;4.82;;;;;;;14.70;64.07;99536.28;4910313;29;20071;-79
2022/06/19 01:57:48;;;;;;;10.27;5.85;;;;;;;14.61;64.09;99519.91;4924053;29;20158;-80
2022/06/19 02:00:23;;;;;;;9.20;4.68;;;;;;;14.71;64.30;99532.78;4939584;29;20042;-77
2022/06/19 02:03:00;;;;;;;10.25;5.18;;;;;;;14.61;64.14;99514.69;4912661;29;20134;-80
2022/06/19 02:05:26;;;;;;;9.00;4.60;;;;;;;14.71;64.04;99517.06;4912772;29;20055;-81
2022/06/19 02:07:53;;;;;;;9.07;4.78;;;;;;;14.66;64.09;99493.59;4925071;29;20062;-79
2022/06/19 02:10:20;;;;;;;7.68;4.28;;;;;;;14.91;64.22;99513.81;4927456;29;21893;-80
2022/06/19 02:12:46;;;;;;;7.78;4.30;;;;;;;14.84;63.90;99494.81;4926177;29;20052;-78
2022/06/19 02:15:32;;;;;;;6.93;4.70;;;;;;;14.88;63.75;99488.56;4900286;29;20043;-81
2022/06/19 02:18:00;;;;;;;8.07;4.22;;;;;;;15.12;63.88;99511.41;4917155;29;20043;-79
2022/06/19 02:20:28;;;;;;;7.70;4.30;;;;;;;15.13;63.62;99503.50;4942822;29;20365;-79
2022/06/19 02:22:54;;;;;;;11.70;4.30;;;;;;;15.11;63.45;99492.22;4907148;29;20511;-82
2022/06/19 02:25:20;;;;;;;13.35;4.25;;;;;;;15.16;63.26;99482.47;4926911;29;20522;-81
2022/06/19 02:27:47;;;;;;;8.00;4.10;;;;;;;15.21;63.17;99488.41;4928926;29;20452;-78
2022/06/19 02:30:14;;;;;;;7.15;4.50;;;;;;;15.25;63.21;99485.66;4923813;29;20042;-78
2022/06/19 02:32:45;;;;;;;10.23;4.40;;;;;;;15.41;62.96;99500.00;4908519;29;20059;-80
2022/06/19 02:35:21;;;;;;;7.57;3.83;;;;;;;15.46;63.18;99500.66;4913689;29;20169;-78
2022/06/19 02:37:54;;;;;;;9.05;3.88;;;;;;;15.60;62.95;99513.31;4927289;29;20508;-80
2022/06/19 02:40:47;;;;;;;7.43;4.13;;;;;;;15.66;62.80;99504.41;4927683;29;20055;-81
2022/06/19 02:43:19;;;;;;;6.63;3.97;;;;;;;15.60;62.55;99479.22;4926178;29;20039;-78
2022/06/19 02:45:45;;;;;;;;;;;;;;;15.80;62.74;99499.53;4928822;29;20043;-78
2022/06/19 02:48:32;;;;;;;5.88;3.50;;;;;;;15.94;62.11;99495.56;4937197;29;19930;-79
2022/06/19 02:51:00;;;;;;;7.63;3.65;;;;;;;15.98;62.03;99485.84;4945761;29;20054;-80
2022/06/19 02:53:27;;;;;;;9.40;3.60;;;;;;;16.16;61.76;99493.03;4915013;29;20064;-80
2022/06/19 02:55:54;;;;;;;4.47;3.40;;;;;;;16.15;61.73;99472.94;4926764;29;20518;-81
2022/06/19 02:58:21;;;;;;;5.03;3.08;;;;;;;16.32;61.33;99484.59;4934470;29;20048;-79
2022/06/19 03:00:49;;;;;;;4.82;3.08;;;;;;;16.32;61.25;99472.31;4926383;29;20048;-79
2022/06/19 03:03:27;;;;;;;10.02;3.20;;;;;;;16.49;61.02;99484.78;4902183;29;20043;-78
2022/06/19 03:05:53;;;;;;;6.80;3.10;;;;;;;16.51;60.75;99469.00;4932174;29;20044;-82
2022/06/19 03:08:19;;;;;;;4.97;2.72;;;;;;;16.61;60.53;99459.81;4931187;29;20054;-81
2022/06/19 03:10:46;;;;;;;4.40;3.15;;;;;;;16.59;60.41;99459.03;4908887;29;20039;-80
2022/06/19 03:13:12;;;;;;;4.75;2.80;;;;;;;16.78;59.98;99471.44;4930341;29;20130;-81
2022/06/19 03:15:38;;;;;;;5.50;2.88;;;;;;;16.79;59.64;99455.63;4927421;29;20471;-77
2022/06/19 03:18:04;;;;;;;7.65;2.90;;;;;;;16.92;59.65;99471.75;4926685;29;20064;-79
2022/06/19 03:20:30;;;;;;;5.63;2.88;;;;;;;16.98;59.30;99461.03;4924795;29;20496;-81
2022/06/19 03:22:57;;;;;;;4.47;2.70;;;;;;;17.10;59.17;99462.28;4930578;29;20043;-83
2022/06/19 03:25:23;;;;;;;7.90;3.00;;;;;;;17.14;59.19;99455.97;4927902;29;20104;-78
2022/06/19 03:27:49;;;;;;;3.67;2.35;;;;;;;17.05;58.89;99416.94;4929528;29;20138;-81
2022/06/19 03:30:19;;;;;;;5.18;2.53;;;;;;;17.31;58.64;99441.28;4927482;29;20040;-78
2022/06/19 03:32:45;;;;;;;4.57;2.63;;;;;;;17.41;58.44;99447.84;4926859;29;20047;-81
2022/06/19 03:35:13;;;;;;;4.18;2.53;;;;;;;17.49;58.13;99442.25;4924292;29;20412;-80
2022/06/19 03:37:39;;;;;;;4.35;2.40;;;;;;;17.56;57.62;99446.34;4913912;29;20051;-80
2022/06/19 03:40:06;;;;;;;4.60;2.60;;;;;;;17.51;57.40;99424.63;4926766;29;20095;-79
2022/06/19 03:42:32;;;;;;;5.07;2.67;;;;;;;17.61;57.29;99425.09;4915956;29;20071;-78
2022/06/19 03:44:58;;;;;;;5.15;2.53;;;;;;;17.66;56.72;99422.25;4926435;29;20523;-79
2022/06/19 03:47:26;;;;;;;5.35;2.60;;;;;;;17.81;56.80;99429.47;4927497;29;20039;-80
2022/06/19 03:49:52;;;;;;;5.50;2.33;;;;;;;17.87;56.57;99423.06;4927235;29;20135;-80
2022/06/19 03:52:19;;;;;;;5.18;2.38;;;;;;;18.03;56.17;99433.81;4913578;29;20047;-81
2022/06/19 03:54:45;;;;;;;3.30;2.40;;;;;;;18.06;55.91;99429.22;4928312;29;20073;-82
2022/06/19 03:57:12;;;;;;;5.50;2.65;;;;;;;17.91;55.62;99404.44;4923602;29;20055;-82
2022/06/19 03:59:39;;;;;;;10.18;2.40;;;;;;;17.96;55.63;99411.28;4927664;29;20483;-81
2022/06/19 04:02:07;;;;;;;4.40;2.22;;;;;;;18.28;55.43;99430.03;4926088;29;20115;-81
2022/06/19 04:04:33;;;;;;;2.90;2.40;;;;;;;18.43;55.28;99423.16;4914368;29;20065;-79
2022/06/19 04:06:59;;;;;;;6.28;2.70;;;;;;;18.66;54.70;99424.72;4921203;29;20345;-83
2022/06/19 04:09:25;;;;;;;6.13;2.33;;;;;;;18.63;54.21;99401.16;4925362;29;20523;-80
2022/06/19 04:11:51;;;;;;;8.32;2.25;;;;;;;18.63;54.12;99402.03;4937277;29;20094;-79
2022/06/19 04:14:17;;;;;;;4.63;2.10;;;;;;;18.64;54.06;99387.03;4927949;29;20055;-79
2022/06/19 04:16:44;;;;;;;3.47;2.20;;;;;;;18.61;53.90;99376.66;4925244;29;20131;-81
2022/06/19 04:19:10;;;;;;;4.55;1.80;;;;;;;18.69;53.24;99363.09;4912532;29;20111;-79
2022/06/19 04:21:44;;;;;;;5.88;2.28;;;;;;;19.25;53.24;99400.75;4913147;29;20066;-79
2022/06/19 04:24:13;;;;;;;4.97;2.20;;;;;;;19.29;53.02;99386.47;4910501;29;20404;-80
2022/06/19 04:26:40;;;;;;;2.72;1.98;;;;;;;19.49;52.67;99376.66;4934571;29;20055;-80
2022/06/19 04:29:08;;;;;;;4.32;2.17;;;;;;;19.66;51.99;99394.25;4929476;29;20047;-80
2022/06/19 04:31:34;;;;;;;3.35;2.15;;;;;;;19.76;51.84;99390.16;4914927;29;20476;-82
2022/06/19 04:34:01;;;;;;;4.20;2.15;;;;;;;19.90;51.49;99380.72;4926731;29;20040;-81
2022/06/19 04:36:28;;;;;;;4.38;2.30;;;;;;;19.99;51.09;99365.22;4913406;29;20507;-81
2022/06/19 04:38:56;;;;;;;2.53;2.10;;;;;;;20.17;50.51;99367.78;4925309;29;20048;-79
2022/06/19 04:41:37;;;;;;;4.68;2.05;;;;;;;20.28;50.44;99378.59;4922505;29;20111;-82
2022/06/19 04:44:09;;;;;;;5.93;2.20;;;;;;;20.30;49.85;99374.06;4898958;29;20123;-79
2022/06/19 04:46:36;;;;;;;7.30;2.20;;;;;;;20.37;49.58;99368.44;4927295;29;20142;-80
2022/06/19 04:49:03;;;;;;;2.83;1.98;;;;;;;20.50;49.18;99363.31;4907998;29;20036;-81
2022/06/19 04:51:29;;;;;;;2.95;1.77;;;;;;;20.47;48.62;99333.47;4927277;29;20044;-80
2022/06/19 04:53:55;;;;;;;2.85;1.80;;;;;;;20.84;48.40;99371.97;4931087;29;20130;-82
2022/06/19 04:56:21;;;;;;;3.55;1.90;;;;;;;20.88;47.94;99362.91;4925614;29;20058;-79
2022/06/19 04:58:51;;;;;;;3.05;2.10;;;;;;;20.99;47.86;99354.34;4926912;29;20032;-77
2022/06/19 05:01:29;;;;;;;5.20;2.00;;;;;;;21.16;47.68;99350.69;4934178;29;20051;-81
2022/06/19 05:04:00;;;;;;;2.42;1.92;;;;;;;21.17;47.06;99340.03;4943018;29;20074;-80
2022/06/19 05:06:30;;;;;;;6.32;2.35;;;;;;;21.25;47.21;99360.75;4936296;29;20062;-81
2022/06/19 05:08:57;;;;;;;3.20;2.00;;;;;;;21.15;46.53;99333.13;4930820;29;20107;-80
2022/06/19 05:11:32;;;;;;;3.88;2.22;;;;;;;21.29;46.82;99350.81;4926461;29;20043;-79
2022/06/19 05:13:59;;;;;;;2.92;2.13;;;;;;;21.19;46.56;99322.25;4924061;29;20826;-79
2022/06/19 05:16:26;;;;;;;2.90;1.88;;;;;;;21.63;46.62;99351.41;4910427;29;20491;-81
2022/06/19 05:18:54;;;;;;;5.38;2.10;;;;;;;21.72;46.01;99316.44;4926096;29;20098;-81
2022/06/19 05:21:23;;;;;;;2.78;1.90;;;;;;;22.10;45.58;99331.66;4926866;29;20062;-80
2022/06/19 05:23:51;;;;;;;3.30;2.00;;;;;;;22.38;45.23;99344.94;4926102;29;20040;-80
2022/06/19 05:26:30;;;;;;;3.47;1.70;;;;;;;22.30;44.65;99326.03;4934228;29;20507;-84
2022/06/19 05:28:57;;;;;;;3.38;2.28;;;;;;;22.52;44.53;99331.66;4926504;29;20403;-80
2022/06/19 05:31:24;;;;;;;2.60;1.80;;;;;;;22.73;44.10;99328.53;4913095;29;20104;-79
2022/06/19 05:33:51;;;;;;;3.35;2.20;;;;;;;23.05;43.56;99328.16;4935198;29;20040;-80
2022/06/19 05:36:21;;;;;;;4.78;2.08;;;;;;;23.26;43.66;99340.94;4928369;29;20523;-81
2022/06/19 05:38:50;;;;;;;4.40;2.15;;;;;;;23.44;43.41;99350.25;4926568;29;20044;-82
2022/06/19 05:41:17;;;;;;;3.05;1.98;;;;;;;23.59;42.70;99347.47;4922477;29;20043;-78
2022/06/19 05:43:50;;;;;;;7.85;2.03;;;;;;;23.75;42.16;99339.28;4928839;29;20044;-81
2022/06/19 05:46:19;;;;;;;7.95;2.58;;;;;;;23.62;42.04;99344.63;4926375;29;20142;-79
2022/06/19 05:48:48;;;;;;;7.13;2.05;;;;;;;23.38;42.26;99349.84;4923498;29;20134;-81
2022/06/19 05:51:20;;;;;;;4.32;2.47;;;;;;;23.21;42.33;99335.06;4923548;29;20163;-81
2022/06/19 05:53:50;;;;;;;11.90;2.30;;;;;;;23.09;42.37;99326.97;4930888;29;20496;-81
2022/06/19 05:56:19;;;;;;;5.22;2.13;;;;;;;22.90;42.58;99321.22;4928933;29;20099;-81
2022/06/19 05:58:46;;;;;;;3.15;2.00;;;;;;;22.78;42.90;99336.16;4925252;29;20110;-80
2022/06/19 06:01:14;;;;;;;10.13;2.08;;;;;;;22.71;43.04;99327.78;4927451;29;20100;-83
2022/06/19 06:03:43;;;;;;;4.78;1.90;;;;;;;23.03;42.90;99322.09;4932608;29;20755;-79
2022/06/19 06:06:14;;;;;;;4.05;2.20;;;;;;;22.98;42.55;99292.38;4923737;29;20055;-80
2022/06/19 06:08:40;;;;;;;4.70;2.20;;;;;;;22.97;42.43;99278.25;4923051;29;20114;-81
2022/06/19 06:11:11;;;;;;;6.03;2.03;;;;;;;22.92;42.27;99296.31;4917325;29;20221;-81
2022/06/19 06:13:49;;;;;;;4.00;2.10;;;;;;;22.97;42.52;99320.69;4927792;29;20216;-82
2022/06/19 06:19:17;;;;;;;5.97;1.98;;;;;;;23.13;42.02;99296.63;4928202;29;20126;-81
2022/06/19 06:22:10;;;;;;;2.55;1.95;;;;;;;24.55;41.50;99255.53;4928593;29;20103;-80
2022/06/19 06:24:48;;;;;;;5.05;1.90;;;;;;;27.05;38.74;99300.41;4926765;29;20135;-80
2022/06/19 06:27:20;;;;;;;6.55;2.17;;;;;;;28.47;36.49;99288.91;4931220;29;20036;-79
2022/06/19 06:29:56;;;;;;;6.68;2.30;;;;;;;29.60;34.11;99304.28;4931835;29;20058;-82
2022/06/19 06:32:25;;;;;;;3.75;2.00;;;;;;;29.61;33.39;99220.22;4931179;29;20044;-83
2022/06/19 06:35:01;;;;;;;5.53;2.50;;;;;;;30.60;32.09;99279.34;4931423;29;20064;-81
2022/06/19 06:37:30;;;;;;;6.22;2.20;;;;;;;31.77;31.35;99258.34;4907402;29;20036;-79
2022/06/19 06:39:56;;;;;;;2.67;1.80;;;;;;;32.99;29.70;99259.56;4933009;29;20039;-80
2022/06/19 06:42:24;;;;;;;3.63;1.98;;;;;;;33.97;27.95;99237.75;4934634;29;20051;-80
2022/06/19 06:45:11;;;;;;;2.90;1.80;;;;;;;34.48;26.92;99264.19;4933309;29;20054;-82
2022/06/19 06:48:20;;;;;;;4.32;1.90;;;;;;;34.56;26.26;99230.88;4928522;29;20079;-81
2022/06/19 06:50:52;;;;;;;3.60;1.90;;;;;;;33.78;26.15;99251.50;4914948;29;20538;-81
2022/06/19 06:53:21;;;;;;;7.68;2.15;;;;;;;32.43;27.44;99246.84;4916624;29;20039;-83
2022/06/19 06:55:49;;;;;;;3.97;1.92;;;;;;;31.06;28.15;99202.13;4928201;29;20134;-80
2022/06/19 06:58:15;;;;;;;4.63;2.10;;;;;;;30.35;28.78;99263.84;4918518;29;20040;-81
2022/06/19 07:00:50;;;;;;;7.60;2.35;;;;;;;29.27;30.45;99250.25;4930562;29;20059;-82
2022/06/19 07:03:20;;;;;;;4.72;2.10;;;;;;;28.28;30.83;99240.75;4928791;29;20044;-80
2022/06/19 07:05:46;;;;;;;4.32;1.80;;;;;;;27.38;31.95;99252.22;4928882;29;20047;-80
2022/06/19 07:08:12;;;;;;;5.05;1.80;;;;;;;26.84;33.28;99256.91;4929103;29;20069;-81
2022/06/19 07:10:41;;;;;;;4.10;2.10;;;;;;;26.27;33.75;99228.69;4927672;29;20039;-80
2022/06/19 07:13:18;;;;;;;4.70;1.98;;;;;;;25.99;34.75;99246.09;4927078;29;20040;-79
2022/06/19 07:16:36;;;;;;;7.07;2.83;;;;;;;24.79;36.02;99103.03;4925631;29;20399;-82
2022/06/19 07:19:06;;;;;;;4.57;2.00;;;;;;;25.56;36.08;99247.78;4929884;29;20079;-80
2022/06/19 07:21:36;;;;;;;2.47;1.70;;;;;;;24.80;36.43;99157.94;4927099;29;20472;-83
2022/06/19 07:24:08;;;;;;;4.88;2.25;;;;;;;24.56;37.18;99196.06;4935254;29;20444;-80
2022/06/19 07:26:41;;;;;;;10.02;2.28;;;;;;;24.57;37.87;99239.44;4929569;29;20614;-81
2022/06/19 07:29:09;;;;;;;7.75;2.50;;;;;;;24.55;38.15;99233.41;4915380;29;20126;-80
2022/06/19 07:31:38;;;;;;;5.53;1.90;;;;;;;25.16;38.80;99195.88;4927786;29;20044;-79
2022/06/19 07:34:05;;;;;;;5.15;2.20;;;;;;;26.34;37.86;99217.50;4931175;29;20058;-81
2022/06/19 07:36:32;;;;;;;6.55;2.30;;;;;;;28.19;35.77;99211.19;4912730;29;20372;-81
2022/06/19 07:38:58;;;;;;;4.07;2.53;;;;;;;29.64;34.45;99198.50;4925896;29;20381;-82
2022/06/19 07:41:27;;;;;;;7.63;2.00;;;;;;;30.41;32.53;99198.00;4928006;29;20048;-80
2022/06/19 07:44:08;;;;;;;4.88;2.25;;;;;;;30.50;30.34;99072.78;4910617;29;20040;-83
2022/06/19 07:50:09;;;;;;;4.03;1.90;;;;;;;31.16;29.80;99040.84;4909279;29;20051;-84
2022/06/19 07:52:37;;;;;;;8.60;1.83;;;;;;;31.27;29.84;99138.22;4930848;29;20067;-81
2022/06/19 07:55:03;;;;;;;4.78;1.85;;;;;;;31.16;29.17;99132.19;4925550;29;20048;-81
2022/06/19 07:57:30;;;;;;;5.40;2.20;;;;;;;30.47;28.77;99164.34;4927197;29;20047;-81
2022/06/19 07:59:59;;;;;;;3.92;2.35;;;;;;;29.67;29.80;99175.88;4918844;29;20562;-83
2022/06/19 08:02:33;;;;;;;3.28;1.92;;;;;;;28.77;30.70;99139.00;4926859;29;20044;-83
2022/06/19 08:05:03;;;;;;;5.28;2.00;;;;;;;28.68;31.31;99170.13;4926180;29;20044;-82
2022/06/19 08:07:29;;;;;;;7.07;2.20;;;;;;;28.14;31.22;99149.28;4923811;29;20047;-80
2022/06/19 08:10:09;;;;;;;5.53;2.35;;;;;;;28.40;31.66;99160.22;4912774;29;20566;-82
2022/06/19 08:12:46;;;;;;;5.13;1.85;;;;;;;29.47;31.00;99168.00;4929431;29;20048;-81
2022/06/19 08:15:12;;;;;;;6.05;2.38;;;;;;;29.93;29.98;99167.09;4911403;29;20043;-82
2022/06/19 08:17:38;;;;;;;7.55;2.10;;;;;;;30.47;29.45;99180.44;4928634;29;20047;-82
2022/06/19 08:20:06;;;;;;;3.85;1.80;;;;;;;30.10;29.56;99168.94;4932450;29;20412;-80
2022/06/19 08:22:32;;;;;;;6.63;2.25;;;;;;;29.25;30.22;99170.06;4932837;29;20424;-83
2022/06/19 08:24:58;;;;;;;3.97;1.90;;;;;;;28.81;31.24;99122.50;4925283;29;20070;-82
2022/06/19 08:27:26;;;;;;;4.25;1.67;;;;;;;30.43;30.68;99165.66;4910910;29;20396;-80
2022/06/19 08:29:52;;;;;;;5.30;1.80;;;;;;;31.36;28.30;99132.72;4926017;29;20419;-81
2022/06/19 08:32:18;;;;;;;5.32;2.03;;;;;;;31.81;27.85;99152.16;4908159;29;20050;-83
2022/06/19 08:34:44;;;;;;;3.75;1.77;;;;;;;32.02;28.21;99145.41;4909992;29;20048;-82
2022/06/19 08:37:11;;;;;;;7.75;1.85;;;;;;;32.89;27.34;99114.31;4905832;29;20042;-83
2022/06/19 08:39:39;;;;;;;8.88;1.95;;;;;;;34.02;26.04;99133.66;4912785;29;20052;-83
2022/06/19 08:42:37;;;;;;;3.90;1.65;;;;;;;34.74;25.34;99136.84;4925116;29;20074;-82
2022/06/19 08:45:06;;;;;;;4.70;1.88;;;;;;;35.13;24.41;99087.06;4923070;29;20602;-83
2022/06/19 08:47:56;;;;;;;7.03;1.90;;;;;;;36.18;23.48;99110.09;4934544;29;20048;-84
2022/06/19 08:51:00;;;;;;;7.53;1.85;;;;;;;36.46;23.17;99095.72;4925639;29;20059;-83
2022/06/19 08:54:04;;;;;;;6.28;2.10;;;;;;;36.55;22.67;99105.34;4930627;29;20070;-81
2022/06/19 08:56:33;;;;;;;3.40;1.60;;;;;;;36.97;21.98;99107.22;4925861;29;20456;-83
2022/06/19 08:59:20;;;;;;;8.38;2.00;;;;;;;36.20;21.98;99064.72;4905807;29;20043;-81
2022/06/19 09:02:08;;;;;;;6.05;1.83;;;;;;;36.57;22.20;99107.88;4923905;29;20044;-82
2022/06/19 09:08:22;;;;;;;16.73;2.83;;;;;;;37.27;21.96;99090.63;4926877;29;20040;-83
2022/06/19 09:11:20;;;;;;;8.25;2.20;;;;;;;36.95;21.85;99065.97;4928695;29;20069;-84
2022/06/19 09:14:29;;;;;;;7.43;2.00;;;;;;;36.27;21.20;99030.41;4914431;29;20059;-83
2022/06/19 09:17:21;;;;;;;16.52;2.38;;;;;;;35.78;21.90;99093.53;4929067;29;20044;-81
2022/06/19 09:19:55;;;;;;;6.38;1.98;;;;;;;35.40;22.17;99041.38;4928472;29;20048;-81
2022/06/19 09:22:27;;;;;;;8.07;1.65;;;;;;;36.25;21.85;99086.63;4928073;29;20047;-83
2022/06/19 09:25:46;;;;;;;3.58;1.70;;;;;;;36.13;21.49;98997.03;4894161;29;20047;-83
2022/06/19 09:28:41;;;;;;;8.75;2.08;;;;;;;36.70;21.07;99066.47;4925490;29;20047;-84
2022/06/19 09:31:34;;;;;;;7.63;1.80;;;;;;;36.67;20.83;99048.72;4897057;29;20145;-82
2022/06/19 09:35:18;;;;;;;6.90;4.18;;;;;;;35.82;21.63;98949.53;4925466;29;20044;-84
2022/06/19 09:37:52;;;;;;;5.60;1.92;;;;;;;35.68;21.67;98977.56;4913461;29;20051;-83
2022/06/19 09:40:38;;;;;;;7.88;2.65;;;;;;;35.68;21.79;98978.38;4930871;29;20036;-84
2022/06/19 09:43:28;;;;;;;5.18;2.10;;;;;;;35.69;21.30;99017.91;4922747;29;20119;-82
2022/06/19 09:46:28;;;;;;;3.85;1.80;;;;;;;34.99;22.34;98998.75;4933861;29;20058;-82
2022/06/19 09:49:16;;;;;;;5.05;2.10;;;;;;;34.70;22.89;99038.31;4929584;29;20103;-81
2022/06/19 09:51:56;;;;;;;8.57;2.00;;;;;;;34.59;22.31;98949.69;4933242;29;20054;-82
2022/06/19 09:54:47;;;;;;;8.27;2.50;;;;;;;33.85;23.00;99013.44;4928516;29;20062;-80
2022/06/19 09:57:32;;;;;;;5.07;2.10;;;;;;;33.24;24.32;99041.22;4934160;29;20051;-84
2022/06/19 10:00:25;;;;;;;4.50;1.80;;;;;;;32.65;24.73;99023.69;4917478;29;20079;-85
2022/06/19 10:03:09;;;;;;;4.55;2.20;;;;;;;31.59;25.55;98954.69;4945772;29;20135;-82
2022/06/19 10:05:41;;;;;;;5.20;2.00;;;;;;;31.37;26.25;99009.97;4916681;29;20052;-82
2022/06/19 10:08:17;;;;;;;5.53;2.13;;;;;;;31.37;26.09;99009.97;4934866;29;20182;-82
2022/06/19 10:11:19;;;;;;;6.05;2.08;;;;;;;32.05;25.95;98997.16;4930383;29;21343;-83
2022/06/19 10:14:22;;;;;;;6.43;2.40;;;;;;;32.14;25.92;98989.88;4927018;29;20051;-85
2022/06/19 10:17:00;;;;;;;6.60;2.03;;;;;;;31.24;26.42;98968.31;4929795;29;20143;-83
2022/06/19 10:20:26;;;;;;;9.77;3.50;;;;;;;30.47;27.44;98988.06;4926267;29;20055;-81
2022/06/19 10:23:11;;;;;;;11.95;2.78;;;;;;;30.53;27.96;98983.91;4915194;29;20156;-82
2022/06/19 10:26:16;;;;;;;6.47;1.92;;;;;;;30.74;26.75;98896.75;4936097;29;20039;-83
2022/06/19 10:29:00;;;;;;;4.57;1.80;;;;;;;30.99;27.26;98974.66;4930982;29;20051;-84
2022/06/19 10:32:01;;;;;;;6.75;1.90;;;;;;;30.53;27.60;98961.59;4931958;29;20048;-82
2022/06/19 10:34:39;;;;;;;9.52;2.53;;;;;;;30.05;28.58;98957.56;4927507;29;20074;-80
2022/06/19 10:37:05;;;;;;;6.68;2.88;;;;;;;29.82;29.11;98967.94;4930240;29;20054;-80
2022/06/19 10:40:09;;;;;;;11.90;2.67;;;;;;;29.39;29.52;98966.97;4933904;29;21133;-83
2022/06/19 10:43:09;;;;;;;10.63;2.70;;;;;;;29.29;29.89;98953.63;4932261;29;20078;-82
2022/06/19 10:46:18;;;;;;;8.75;2.53;;;;;;;28.50;30.26;98846.34;4916915;29;20538;-82
2022/06/19 10:49:37;;;;;;;5.18;2.47;;;;;;;27.98;30.66;98775.63;4889097;29;20115;-83
2022/06/19 10:53:01;;;;;;;6.10;2.22;;;;;;;28.47;31.16;98887.63;4928681;29;20063;-81
2022/06/19 10:56:41;;;;;;;4.25;2.50;;;;;;;28.51;31.18;98869.44;4892879;29;20743;-84
2022/06/19 11:05:31;;;;;;;4.82;2.20;;;;;;;27.77;32.51;98929.03;4875825;29;20044;-84
2022/06/19 11:08:40;;;;;;;;;;;;;;;;;;;;;
2022/06/19 11:11:37;;;;;;;9.98;2.55;;;;;;;27.26;32.84;98834.94;4928397;29;20040;-82
2022/06/19 11:14:38;;;;;;;9.68;2.70;;;;;;;27.03;33.20;98789.91;4912244;29;20075;-82
2022/06/19 11:17:14;;;;;;;8.38;2.60;;;;;;;27.22;33.35;98822.91;4922887;29;20179;-84
2022/06/19 11:19:45;;;;;;;5.75;2.50;;;;;;;27.26;33.53;98883.00;4913757;29;20067;-83
2022/06/19 11:22:32;;;;;;;7.70;2.50;;;;;;;26.89;34.22;98881.94;4921250;29;20048;-83
2022/06/19 11:25:21;;;;;;;6.22;2.17;;;;;;;27.04;34.68;98895.66;4927329;29;20059;-84
2022/06/19 11:31:38;;;;;;;9.98;2.85;;;;;;;25.86;35.63;98786.19;4930434;29;20047;-82
2022/06/19 11:46:13;;;;;;;9.30;2.67;;;;;;;26.24;36.68;98903.72;4932815;29;20047;-82
2022/06/19 11:48:49;;;;;;;;;;;;;;;;;;;;;
2022/06/19 11:51:30;;;;;;;11.13;2.60;;;;;;;25.17;37.38;98776.22;4937547;29;20040;-82
2022/06/19 11:53:59;;;;;;;7.70;2.60;;;;;;;25.65;37.27;98847.53;4942710;29;20048;-79
2022/06/19 11:56:34;;;;;;;5.72;2.63;;;;;;;25.56;37.14;98859.00;4934922;29;20040;-81
2022/06/19 11:59:24;;;;;;;8.43;2.60;;;;;;;25.90;37.55;98924.47;4911594;29;20083;-82
2022/06/19 12:02:03;;;;;;;8.27;2.63;;;;;;;25.58;37.74;98862.38;4915916;29;20550;-82
2022/06/19 12:04:56;;;;;;;10.45;3.03;;;;;;;25.97;37.69;98904.28;4933600;29;20075;-84
2022/06/19 12:07:26;;;;;;;6.25;2.30;;;;;;;25.73;37.51;98883.31;4934728;29;20386;-81
2022/06/19 12:09:57;;;;;;;6.00;2.60;;;;;;;25.85;37.79;98914.19;4930089;29;20048;-81
2022/06/19 12:12:26;;;;;;;11.32;3.15;;;;;;;25.52;38.22;98886.84;4916023;29;21484;-83
2022/06/19 12:14:57;;;;;;;5.32;2.40;;;;;;;25.29;38.69;98867.47;4933822;29;20103;-82
2022/06/19 12:17:37;;;;;;;4.38;2.42;;;;;;;25.53;38.88;98900.03;4950994;29;20091;-82
2022/06/19 12:23:45;;;;;;;16.15;3.40;;;;;;;25.02;39.00;98783.72;4932088;29;20526;-80
2022/06/19 12:26:21;;;;;;;7.70;2.50;;;;;;;25.77;39.05;98898.06;4932385;29;20047;-82
2022/06/19 12:28:53;;;;;;;7.85;3.00;;;;;;;25.15;38.82;98797.66;4915090;29;20530;-80
2022/06/19 12:31:34;;;;;;;7.03;2.65;;;;;;;25.71;39.30;98854.97;4928595;29;20040;-84
2022/06/19 12:34:29;;;;;;;4.57;2.17;;;;;;;25.72;38.87;98842.50;4926505;29;20039;-80
2022/06/19 12:36:59;;;;;;;5.03;2.42;;;;;;;25.71;39.22;98838.13;4927033;29;20056;-80
2022/06/19 12:39:29;;;;;;;5.07;2.72;;;;;;;25.91;39.00;98859.56;4922808;29;20044;-83
2022/06/19 12:42:54;;;;;;;9.18;2.60;;;;;;;25.99;39.16;98855.22;4929351;29;20050;-82
2022/06/19 12:45:24;;;;;;;7.43;2.80;;;;;;;25.92;39.26;98837.25;4928998;29;20089;-81
2022/06/19 12:48:39;;;;;;;6.65;2.90;;;;;;;25.96;39.50;98835.97;4928110;29;20119;-82